sensor_id;sensor_type;location;lat;lon;timestamp;P1;P2;P0
79317;PMS7003;68779;50.036;19.964;2023-07-24T00:25:51;6;4;4
79317;PMS7003;68779;50.036;19.964;2023-07-24T00:56:10;5;4;4
79317;PMS7003;68779;50.036;19.964;2023-07-24T01:26:25;5;5;4
79317;PMS7003;68779;50.036;19.964;2023-07-24T01:56:39;7;7;5
79317;PMS7003;68779;50.036;19.964;2023-07-24T02:26:55;6;6;4
79317;PMS7003;68779;50.036;19.964;2023-07-24T02:57:11;6;6;5
79317;PMS7003;68779;50.036;19.964;2023-07-24T03:27:28;6;5;4
79317;PMS7003;68779;50.036;19.964;2023-07-24T03:57:44;5;5;4
79317;PMS7003;68779;50.036;19.964;2023-07-24T04:28:00;7;7;4
79317;PMS7003;68779;50.036;19.964;2023-07-24T04:58:17;6;6;4
79317;PMS7003;68779;50.036;19.964;2023-07-24T05:28:33;7;7;5
79317;PMS7003;68779;50.036;19.964;2023-07-24T05:58:49;5;5;3
79317;PMS7003;68779;50.036;19.964;2023-07-24T06:29:08;8;7;6
79317;PMS7003;68779;50.036;19.964;2023-07-24T06:59:29;9;9;7
79317;PMS7003;68779;50.036;19.964;2023-07-24T07:29:45;10;9;5
79317;PMS7003;68779;50.036;19.964;2023-07-24T08:00:00;6;5;4
79317;PMS7003;68779;50.036;19.964;2023-07-24T08:30:15;9;8;5
79317;PMS7003;68779;50.036;19.964;2023-07-24T09:00:29;8;8;6
79317;PMS7003;68779;50.036;19.964;2023-07-24T10:18:14;9;9;6
79317;PMS7003;68779;50.036;19.964;2023-07-24T10:48:35;7;7;5
79317;PMS7003;68779;50.036;19.964;2023-07-24T11:18:51;9;9;6
79317;PMS7003;68779;50.036;19.964;2023-07-24T11:49:08;10;8;6
79317;PMS7003;68779;50.036;19.964;2023-07-24T12:19:23;8;8;7
79317;PMS7003;68779;50.036;19.964;2023-07-24T12:49:38;10;10;8
79317;PMS7003;68779;50.036;19.964;2023-07-24T13:19:54;14;14;9
79317;PMS7003;68779;50.036;19.964;2023-07-24T13:50:12;9;9;7
79317;PMS7003;68779;50.036;19.964;2023-07-24T14:20:32;12;11;8
79317;PMS7003;68779;50.036;19.964;2023-07-24T14:51:05;11;11;8
79317;PMS7003;68779;50.036;19.964;2023-07-24T15:21:21;10;10;8
79317;PMS7003;68779;50.036;19.964;2023-07-24T15:51:35;13;13;8
79317;PMS7003;68779;50.036;19.964;2023-07-24T16:21:49;20;19;11
79317;PMS7003;68779;50.036;19.964;2023-07-24T16:52:10;16;15;11
79317;PMS7003;68779;50.036;19.964;2023-07-24T17:22:25;11;11;8
79317;PMS7003;68779;50.036;19.964;2023-07-24T18:23:11;9;9;8
79317;PMS7003;68779;50.036;19.964;2023-07-24T18:53:26;12;12;7
79317;PMS7003;68779;50.036;19.964;2023-07-24T19:23:42;11;11;7
79317;PMS7003;68779;50.036;19.964;2023-07-24T19:53:58;11;10;8
79317;PMS7003;68779;50.036;19.964;2023-07-24T20:54:38;9;8;6
79317;PMS7003;68779;50.036;19.964;2023-07-24T21:24:55;6;6;4
79317;PMS7003;68779;50.036;19.964;2023-07-24T21:55:09;6;6;4
79317;PMS7003;68779;50.036;19.964;2023-07-24T22:25:23;5;4;3
79317;PMS7003;68779;50.036;19.964;2023-07-24T22:55:38;4;4;3
79317;PMS7003;68779;50.036;19.964;2023-07-24T23:25:52;5;5;4
